Thunder radar more information blitzortung!


Radar de pluja more information rain snow radar


Visita la nostra xarxa de llocs de meteo:

Template documentation
and downloads

And another site



No particular awareness of the weather is required.    There are no Weather-warnings

Pagina Historial Weather Underground text

Diari Resum Novembre 3, 2017 Unitats:  Imperial    Mètric   Tant
« Previous Dia
SegĂźent Dia »
Diari Setmana Mensual Anual Personalitzada
  Maxima: Minima: Media:
Temperatura: TemperatureC °F 11.7 °F 17.3 °F
Punt de rosada: DewpointC °F 10.3 °F 13.1 °F
Humitat: Humidity % 63 % 77 %
Wind Speed: WindSpeedKMH mph 0.0 mph 4.4 mph
RĂ fegues de vent: WindSpeedGustKMH mph - -
Vent:- - South
Pression baro: PressurehPa in 1012.8 in -
Precipitacions: 0.0 in    
Historical Graphs
 
 
Dades de taula per Novembre 3, 2017
Temps Temperatura Punt de rosada Pression baro Vent Wind Speed RĂ fegues de vent Humitat Rainfall Rate (Hourly)
TemperatureC °F DewpointC °F PressurehPa in Calm     Humidity % HourlyPrecipMM in
00:01 13.8 °F 10.9 °F 1017.8 in Calm     83 % 0.0 in
00:06 13.8 °F 10.9 °F 1017.8 in ENE 1.9 mph 1.9 mph 83 % 0.0 in
02:50 11.7 °F 10.3 °F 1016.8 in SW 1.6 mph   91 % 0.0 in
03:00 11.7 °F 10.3 °F 1016.8 in Calm   3.2 mph 91 % 0.0 in
03:10 11.9 °F 10.5 °F 1017.8 in SSW 1.6 mph 1.6 mph 91 % 0.0 in
03:20 12.1 °F 10.7 °F 1017.8 in Calm   1.6 mph 91 % 0.0 in
03:30 12.4 °F 11.1 °F 1016.8 in Calm   1.6 mph 92 % 0.0 in
03:40 12.7 °F 11.3 °F 1016.8 in WSW 3.2 mph 3.2 mph 91 % 0.0 in
03:50 13.0 °F 11.6 °F 1016.8 in Calm   4.8 mph 91 % 0.0 in
04:00 13.4 °F 11.8 °F 1016.8 in North 3.2 mph 6.4 mph 90 % 0.0 in
04:10 13.7 °F 11.9 °F 1016.8 in North 3.2 mph 4.8 mph 89 % 0.0 in
04:20 13.7 °F 11.9 °F 1016.8 in Calm   3.2 mph 89 % 0.0 in
04:30 14.0 °F 12.1 °F 1016.8 in NNE 3.2 mph 3.2 mph 88 % 0.0 in
04:40 14.6 °F 12.4 °F 1016.8 in NE 1.6 mph 3.2 mph 87 % 0.0 in
04:50 15.2 °F 12.9 °F 1016.8 in NE 1.6 mph 3.2 mph 86 % 0.0 in
10:56 15.4 °F 12.7 °F 1016.8 in ENE 1.9 mph 1.9 mph 84 % 0.0 in
10:57 15.4 °F 12.7 °F 1016.8 in ENE 1.9 mph 1.9 mph 84 % 0.0 in
11:02 15.7 °F 13.0 °F 1016.8 in NNE 4.2 mph 4.2 mph 84 % 0.0 in
11:07 15.8 °F 13.1 °F 1016.8 in NNE 5.6 mph 5.6 mph 84 % 0.0 in
11:12 16.0 °F 13.1 °F 1016.8 in NNE 3.7 mph 3.7 mph 83 % 0.0 in
11:17 16.3 °F 13.4 °F 1016.8 in ENE 5.0 mph 5.0 mph 83 % 0.0 in
11:22 16.4 °F 13.3 °F 1016.8 in NE 7.4 mph 7.4 mph 82 % 0.0 in
11:27 16.6 °F 13.5 °F 1016.8 in ENE 3.7 mph 3.9 mph 82 % 0.0 in
11:32 16.7 °F 13.6 °F 1016.8 in North 3.7 mph 3.7 mph 82 % 0.0 in
11:37 17.0 °F 13.5 °F 1015.8 in ENE 5.6 mph 5.6 mph 80 % 0.0 in
11:42 17.2 °F 13.7 °F 1015.8 in ENE 3.7 mph 3.7 mph 80 % 0.0 in
11:47 17.1 °F 13.4 °F 1015.8 in ENE 5.6 mph 5.6 mph 79 % 0.0 in
11:52 17.1 °F 13.4 °F 1015.8 in NE 7.4 mph 7.4 mph 79 % 0.0 in
11:57 17.4 °F 13.5 °F 1015.8 in NE 6.9 mph 6.9 mph 78 % 0.0 in
12:02 17.3 °F 13.4 °F 1015.8 in NNE 7.4 mph 7.4 mph 78 % 0.0 in
12:07 17.5 °F 13.6 °F 1015.8 in NNE 5.8 mph 5.8 mph 78 % 0.0 in
12:12 17.6 °F 13.5 °F 1015.8 in NW 3.7 mph   77 % 0.0 in
12:17 18.0 °F 13.9 °F 1015.8 in ENE 5.8 mph 5.8 mph 77 % 0.0 in
12:22 18.0 °F 13.7 °F 1015.8 in ESE 6.1 mph 6.1 mph 76 % 0.0 in
12:27 18.3 °F 14.2 °F 1015.8 in ENE 5.6 mph 5.6 mph 77 % 0.0 in
12:32 18.7 °F 14.6 °F 1015.8 in ENE 5.0 mph 5.0 mph 77 % 0.0 in
12:37 18.8 °F 14.5 °F 1015.8 in NW 3.7 mph 3.7 mph 76 % 0.0 in
12:42 18.8 °F 14.1 °F 1015.8 in ENE 7.4 mph 7.4 mph 74 % 0.0 in
12:47 19.2 °F 14.4 °F 1015.8 in ESE 3.7 mph 3.7 mph 74 % 0.0 in
12:52 19.2 °F 14.2 °F 1015.8 in SE 5.6 mph 5.6 mph 73 % 0.0 in
12:57 19.4 °F 14.4 °F 1015.8 in ESE 4.7 mph 4.7 mph 73 % 0.0 in
13:02 19.4 °F 14.4 °F 1015.8 in NE 3.7 mph 3.7 mph 73 % 0.0 in
13:07 19.8 °F 15.2 °F 1014.8 in SW 3.7 mph 3.7 mph 75 % 0.0 in
13:12 20.5 °F 15.3 °F 1014.8 in West 5.6 mph 5.6 mph 72 % 0.0 in
13:17 20.5 °F 15.3 °F 1014.8 in SSE 7.4 mph 7.4 mph 72 % 0.0 in
13:22 20.6 °F 15.2 °F 1014.8 in SSW 5.6 mph 5.6 mph 71 % 0.0 in
13:27 20.8 °F 15.3 °F 1014.8 in NW 3.7 mph 3.7 mph 71 % 0.0 in
13:32 20.9 °F 15.4 °F 1014.8 in WSW 5.6 mph 5.6 mph 71 % 0.0 in
13:37 20.8 °F 14.7 °F 1014.8 in SW 5.6 mph 5.6 mph 68 % 0.0 in
13:42 20.6 °F 14.7 °F 1014.8 in WSW 3.7 mph 3.7 mph 69 % 0.0 in
13:47 20.3 °F 14.2 °F 1014.8 in ENE 3.7 mph 3.7 mph 68 % 0.0 in
13:52 20.2 °F 14.3 °F 1014.8 in East 1.9 mph 1.9 mph 69 % 0.0 in
13:57 20.2 °F 14.3 °F 1014.8 in NNE 3.7 mph 3.9 mph 69 % 0.0 in
14:02 20.6 °F 14.7 °F 1014.8 in SW 5.6 mph 5.6 mph 69 % 0.0 in
14:07 21.2 °F 15.1 °F 1014.8 in WSW 6.4 mph 6.4 mph 68 % 0.0 in
14:12 21.3 °F 14.9 °F 1014.8 in SW 9.3 mph 9.3 mph 67 % 0.0 in
14:17 21.0 °F 14.6 °F 1014.8 in SW 9.3 mph 9.3 mph 67 % 0.0 in
14:22 20.8 °F 14.4 °F 1013.8 in WSW 7.4 mph 7.4 mph 67 % 0.0 in
14:23 20.7 °F 14.3 °F 1013.8 in SW 7.4 mph 7.4 mph 67 % 0.0 in
14:28 20.7 °F 14.3 °F 1013.8 in WSW 2.6 mph 2.6 mph 67 % 0.0 in
14:33 21.4 °F 14.8 °F 1013.8 in WSW 9.3 mph 9.3 mph 66 % 0.0 in
14:38 21.0 °F 14.4 °F 1013.8 in SW 9.5 mph 9.5 mph 66 % 0.0 in
14:43 21.3 °F 14.4 °F 1013.8 in WSW 7.4 mph 7.4 mph 65 % 0.0 in
14:48 21.5 °F 14.4 °F 1013.8 in SSW 13.0 mph 13.0 mph 64 % 0.0 in
14:53 21.4 °F 14.3 °F 1013.8 in WSW 9.3 mph 9.3 mph 64 % 0.0 in
14:58 21.4 °F 14.8 °F 1013.8 in WSW 8.7 mph 8.7 mph 66 % 0.0 in
15:03 21.3 °F 14.4 °F 1013.8 in SSW 7.4 mph 7.4 mph 65 % 0.0 in
15:08 21.6 °F 14.7 °F 1013.8 in WSW 11.1 mph 11.1 mph 65 % 0.0 in
15:13 21.6 °F 14.7 °F 1013.8 in SSW 5.6 mph 5.6 mph 65 % 0.0 in
15:18 21.9 °F 15.0 °F 1013.8 in SSW 9.0 mph 9.0 mph 65 % 0.0 in
15:23 21.7 °F 14.6 °F 1013.8 in SSW 11.1 mph 11.1 mph 64 % 0.0 in
15:28 21.5 °F 14.4 °F 1013.8 in SW 10.0 mph 10.0 mph 64 % 0.0 in
15:33 21.5 °F 14.4 °F 1013.8 in SW 5.6 mph 5.6 mph 64 % 0.0 in
15:38 21.6 °F 14.5 °F 1013.8 in WSW 9.7 mph 9.7 mph 64 % 0.0 in
15:43 21.8 °F 14.7 °F 1013.8 in SW 9.3 mph 9.3 mph 64 % 0.0 in
15:48 21.9 °F 14.6 °F 1013.8 in SW 9.3 mph 9.3 mph 63 % 0.0 in
15:53 21.7 °F 14.3 °F 1012.8 in SSW 11.1 mph 11.1 mph 63 % 0.0 in
15:58 21.3 °F 13.9 °F 1012.8 in West 13.0 mph 13.0 mph 63 % 0.0 in
16:03 21.2 °F 14.1 °F 1012.8 in SW 9.3 mph 9.3 mph 64 % 0.0 in
16:08 21.4 °F 14.3 °F 1013.8 in SW 7.4 mph 7.4 mph 64 % 0.0 in
16:13 21.5 °F 14.4 °F 1013.8 in South 7.4 mph 7.4 mph 64 % 0.0 in
16:18 21.3 °F 14.2 °F 1013.8 in WSW 9.3 mph 9.3 mph 64 % 0.0 in
16:23 21.3 °F 14.4 °F 1013.8 in SSE 9.3 mph 9.3 mph 65 % 0.0 in
16:28 21.0 °F 13.9 °F 1013.8 in SW 9.3 mph 9.3 mph 64 % 0.0 in
16:33 20.9 °F 14.1 °F 1013.8 in West 7.4 mph 7.4 mph 65 % 0.0 in
16:38 20.8 °F 14.0 °F 1013.8 in SW 5.6 mph 5.6 mph 65 % 0.0 in
16:43 20.7 °F 14.1 °F 1013.8 in WSW 5.6 mph 5.6 mph 66 % 0.0 in
16:48 20.2 °F 13.7 °F 1013.8 in South 11.1 mph 11.1 mph 66 % 0.0 in
16:54 19.8 °F 13.5 °F 1013.8 in SW 5.6 mph 7.6 mph 67 % 0.0 in
16:59 19.6 °F 13.3 °F 1013.8 in WSW 7.9 mph 8.7 mph 67 % 0.0 in
17:04 19.3 °F 13.2 °F 1013.8 in West 9.3 mph 9.3 mph 68 % 0.0 in
17:09 19.1 °F 13.3 °F 1012.8 in SSW 7.4 mph 7.4 mph 69 % 0.0 in
17:14 19.0 °F 13.2 °F 1012.8 in South 5.6 mph 5.6 mph 69 % 0.0 in
17:19 18.8 °F 13.4 °F 1012.8 in SSW 9.0 mph 9.0 mph 71 % 0.0 in
17:24 18.6 °F 13.2 °F 1013.8 in WSW 9.3 mph 9.3 mph 71 % 0.0 in
17:29 18.5 °F 13.2 °F 1013.8 in SW 12.2 mph 12.2 mph 71 % 0.0 in
17:34 18.3 °F 13.2 °F 1013.8 in WSW 11.1 mph 11.1 mph 72 % 0.0 in
17:39 18.2 °F 13.1 °F 1013.8 in SSW 6.4 mph 6.4 mph 72 % 0.0 in
17:44 18.1 °F 12.9 °F 1013.8 in SW 9.3 mph 9.3 mph 72 % 0.0 in
17:49 18.0 °F 13.1 °F 1013.8 in WSW 11.1 mph 11.1 mph 73 % 0.0 in
17:54 17.9 °F 13.0 °F 1012.8 in SW 7.4 mph 7.4 mph 73 % 0.0 in
17:59 17.7 °F 13.0 °F 1012.8 in WSW 7.4 mph 7.4 mph 74 % 0.0 in
18:04 17.6 °F 12.9 °F 1012.8 in SSW 6.1 mph 6.4 mph 74 % 0.0 in
18:09 17.5 °F 12.8 °F 1013.8 in South 9.3 mph 9.3 mph 74 % 0.0 in
18:14 17.4 °F 12.9 °F 1013.8 in WSW 9.3 mph 9.3 mph 75 % 0.0 in
18:19 17.3 °F 12.8 °F 1013.8 in South 10.3 mph 10.3 mph 75 % 0.0 in
18:24 17.2 °F 12.9 °F 1013.8 in SW 7.4 mph 7.4 mph 76 % 0.0 in
18:29 17.1 °F 12.8 °F 1013.8 in South 7.4 mph 7.4 mph 76 % 0.0 in
18:34 17.0 °F 12.7 °F 1013.8 in SW 5.6 mph 5.6 mph 76 % 0.0 in
18:39 16.9 °F 12.8 °F 1013.8 in SW 5.6 mph 5.6 mph 77 % 0.0 in
18:44 16.8 °F 12.9 °F 1013.8 in West 5.6 mph 5.6 mph 78 % 0.0 in
18:49 16.8 °F 12.9 °F 1013.8 in SW 3.7 mph   78 % 0.0 in
18:54 16.7 °F 12.8 °F 1013.8 in SW 5.6 mph 5.6 mph 78 % 0.0 in
18:59 16.6 °F 12.7 °F 1013.8 in WSW 3.7 mph 3.7 mph 78 % 0.0 in
19:05 16.5 °F 12.8 °F 1013.8 in SW 3.7 mph 3.7 mph 79 % 0.0 in
19:10 16.5 °F 12.8 °F 1013.8 in SW 3.7 mph 3.7 mph 79 % 0.0 in
19:15 16.4 °F 12.7 °F 1013.8 in WSW 3.7 mph 3.7 mph 79 % 0.0 in
19:20 16.3 °F 12.7 °F 1013.8 in SW 3.7 mph 3.7 mph 79 % 0.0 in
19:25 16.3 °F 12.7 °F 1014.8 in SW 3.7 mph 3.7 mph 79 % 0.0 in
19:30 16.2 °F 12.7 °F 1014.8 in SW 5.6 mph 5.6 mph 80 % 0.0 in
19:35 16.2 °F 12.7 °F 1014.8 in West 3.7 mph 3.7 mph 80 % 0.0 in
19:40 16.2 °F 12.7 °F 1013.8 in SW 1.6 mph 4.8 mph 80 % 0.0 in
19:45 16.1 °F 12.7 °F 1013.8 in West 3.7 mph 3.7 mph 80 % 0.0 in
19:50 16.1 °F 12.8 °F 1013.8 in SW 3.2 mph 3.2 mph 81 % 0.0 in
19:55 16.1 °F 12.8 °F 1013.8 in WSW 1.9 mph   81 % 0.0 in
20:00 16.1 °F 12.8 °F 1013.8 in Calm   3.2 mph 81 % 0.0 in
20:05 16.0 °F 12.7 °F 1013.8 in Calm   1.6 mph 81 % 0.0 in
20:10 16.0 °F 12.9 °F 1014.8 in Calm     82 % 0.0 in
20:15 15.9 °F 12.8 °F 1014.8 in Calm     82 % 0.0 in
20:20 15.9 °F 12.8 °F 1014.8 in NNW 2.6 mph 2.6 mph 82 % 0.0 in
20:25 15.9 °F 12.8 °F 1014.8 in Calm   3.2 mph 82 % 0.0 in
20:30 15.9 °F 12.8 °F 1014.8 in Calm     82 % 0.0 in
20:35 15.8 °F 12.7 °F 1014.8 in Calm     82 % 0.0 in
20:40 15.8 °F 12.7 °F 1014.8 in NW 1.4 mph   82 % 0.0 in
20:45 15.8 °F 12.9 °F 1014.8 in Calm     83 % 0.0 in
20:50 15.7 °F 12.8 °F 1014.8 in Calm     83 % 0.0 in
20:55 15.5 °F 12.6 °F 1014.8 in NW 1.9 mph   83 % 0.0 in
21:00 15.4 °F 12.5 °F 1014.8 in Calm     83 % 0.0 in
21:05 15.4 °F 12.5 °F 1014.8 in Calm     83 % 0.0 in
21:10 15.4 °F 12.5 °F 1014.8 in Calm     83 % 0.0 in
21:15 15.3 °F 12.4 °F 1014.8 in Calm     83 % 0.0 in
21:20 15.3 °F 12.6 °F 1014.8 in Calm     84 % 0.0 in
21:25 15.3 °F 12.6 °F 1014.8 in Calm   1.6 mph 84 % 0.0 in
21:30 15.3 °F 12.4 °F 1014.8 in WNW 1.6 mph 3.2 mph 83 % 0.0 in
21:35 15.3 °F 12.4 °F 1014.8 in Calm     83 % 0.0 in
21:40 15.3 °F 12.6 °F 1014.8 in Calm     84 % 0.0 in
21:45 15.3 °F 12.6 °F 1014.8 in Calm     84 % 0.0 in
21:50 15.3 °F 12.6 °F 1014.8 in Calm     84 % 0.0 in
21:55 15.3 °F 12.6 °F 1014.8 in WNW 1.9 mph 1.9 mph 84 % 0.0 in
22:00 15.3 °F 12.6 °F 1014.8 in West 3.7 mph 3.7 mph 84 % 0.0 in
22:05 15.3 °F 12.6 °F 1014.8 in Calm   1.6 mph 84 % 0.0 in
22:10 15.2 °F 12.5 °F 1014.8 in Calm     84 % 0.0 in
22:15 15.1 °F 12.4 °F 1014.8 in Calm     84 % 0.0 in
22:20 15.2 °F 12.5 °F 1014.8 in Calm     84 % 0.0 in
22:25 15.2 °F 12.5 °F 1014.8 in Calm     84 % 0.0 in
22:30 15.2 °F 12.5 °F 1014.8 in Calm     84 % 0.0 in
22:35 15.2 °F 12.5 °F 1014.8 in Calm     84 % 0.0 in
22:40 15.1 °F 12.4 °F 1014.8 in Calm     84 % 0.0 in
22:45 15.0 °F 12.3 °F 1014.8 in Calm     84 % 0.0 in
22:50 14.7 °F 12.0 °F 1014.8 in North 1.6 mph 3.2 mph 84 % 0.0 in
22:55 14.6 °F 11.9 °F 1013.8 in Calm   1.6 mph 84 % 0.0 in
23:00 14.5 °F 12.0 °F 1013.8 in Calm     85 % 0.0 in
23:05 14.4 °F 11.9 °F 1013.8 in Calm     85 % 0.0 in
23:10 14.3 °F 11.8 °F 1014.8 in Calm     85 % 0.0 in
23:15 14.2 °F 11.7 °F 1014.8 in Calm     85 % 0.0 in
23:20 14.2 °F 11.7 °F 1014.8 in Calm     85 % 0.0 in
23:25 14.3 °F 11.8 °F 1014.8 in Calm     85 % 0.0 in
23:30 14.3 °F 12.0 °F 1014.8 in Calm     86 % 0.0 in
23:35 14.2 °F 11.8 °F 1014.8 in Calm     86 % 0.0 in
23:40 14.1 °F 11.8 °F 1014.8 in Calm     86 % 0.0 in
23:45 14.1 °F 11.8 °F 1014.8 in Calm     86 % 0.0 in
23:50 14.0 °F 11.7 °F 1014.8 in NNE 1.9 mph 2.3 mph 86 % 0.0 in
23:55 14.0 °F 11.9 °F 1014.8 in NNE 2.3 mph 2.3 mph 87 % 0.0 in
Meteo Sesrovires
Elogis d' Weather Underground - 1.5 mb

Guio original per  Jim McMurry - jmcmurry@mwt.net Adaptat per a la plantilla per  Wim van der Kuil - Leuven-Template.eu

Trobareu la nostra informacio del temps tambe a:

Weather Underground

AWEKAS